This is the latest recevied weather packets stored in our database for station/object SV2RIM-2. If no packets are shown the sender has not sent any weather packets the latest 10 day(s).
| Time | Temp. | Humidity | Pressure | Rain* | Wind** | Luminosity | Snow |
|---|---|---|---|---|---|---|---|
| 1777533919 | 21.11° C | 47% | 1016.1 hPa | - | - | - | - |
| 1777533319 | 21.11° C | 46% | 1016.2 hPa | - | - | - | - |
| 1777532719 | 21.11° C | 46% | 1016.2 hPa | - | - | - | - |
| 1777532119 | 20° C | 49% | 1016.2 hPa | - | - | - | - |
| 1777531519 | 19.44° C | 49% | 1016.3 hPa | - | - | - | - |
| 1777530919 | 18.33° C | 53% | 1016.3 hPa | - | - | - | - |
| 1777530319 | 19.44° C | 48% | 1016.2 hPa | - | - | - | - |
| 1777529719 | 17.22° C | 53% | 1016.2 hPa | - | - | - | - |
| 1777529119 | 18.33° C | 49% | 1016.3 hPa | - | - | - | - |
| 1777528519 | 18.33° C | 48% | 1016.3 hPa | - | - | - | - |
| 1777527919 | 19.44° C | 45% | 1016.4 hPa | - | - | - | - |
| 1777527319 | 17.78° C | 48% | 1016.4 hPa | - | - | - | - |
| 1777526719 | 16.11° C | 52% | 1016.4 hPa | - | - | - | - |
| 1777526119 | 12.78° C | 63% | 1016.4 hPa | - | - | - | - |
| 1777525519 | 11.67° C | 65% | 1016.3 hPa | - | - | - | - |
| 1777524919 | 11.11° C | 66% | 1016.4 hPa | - | - | - | - |
| 1777524319 | 10.56° C | 67% | 1016.4 hPa | - | - | - | - |
| 1777523719 | 10° C | 67% | 1016.3 hPa | - | - | - | - |
| 1777523119 | 10° C | 67% | 1016.1 hPa | - | - | - | - |
| 1777522519 | 9.44° C | 68% | 1016.1 hPa | - | - | - | - |
| 1777521919 | 9.44° C | 68% | 1016 hPa | - | - | - | - |
| 1777521319 | 9.44° C | 68% | 1016 hPa | - | - | - | - |
| 1777520719 | 9.44° C | 68% | 1015.8 hPa | - | - | - | - |
| 1777520119 | 9.44° C | 68% | 1015.8 hPa | - | - | - | - |
| 1777519519 | 9.44° C | 67% | 1015.9 hPa | - | - | - | - |
* Rain since midnight (hover to see other rain measurements)
** Current wind speed in m/s (hover to see current wind gust speed)